Time;durP1;ratioP1;P1;durP2;ratioP2;P2;SDS_P1;SDS_P2;PMS_P1;PMS_P2;Temp;Humidity;BMP_temperature;BMP_pressure;BME280_temperature;BME280_humidity;BME280_pressure;Samples;Min_cycle;Max_cycle;Signal;HPM_P1;HPM_P2
2021/06/02 00:02:03;;;;;;;10.30;5.05;;;;;;;11.24;nan;102015.69;5038733;28;20646;-87
2021/06/02 00:04:32;;;;;;;10.30;5.55;;;;;;;11.17;nan;102011.19;5043012;28;20364;-87
2021/06/02 00:07:00;;;;;;;11.15;5.30;;;;;;;11.16;nan;102009.56;5054557;28;20078;-89
2021/06/02 00:09:29;;;;;;;8.68;5.38;;;;;;;11.01;nan;102005.59;5054715;28;20043;-90
2021/06/02 00:11:57;;;;;;;14.25;5.50;;;;;;;10.88;nan;102006.50;5054301;28;20081;-89
2021/06/02 00:14:25;;;;;;;10.23;5.68;;;;;;;10.96;nan;102019.66;5054627;28;20437;-90
2021/06/02 00:16:54;;;;;;;12.38;6.07;;;;;;;10.93;nan;102016.56;5054667;28;20048;-89
2021/06/02 00:19:21;;;;;;;11.60;5.63;;;;;;;10.92;nan;102015.75;5054948;28;20115;-89
2021/06/02 00:21:47;;;;;;;10.43;6.00;;;;;;;10.74;nan;102011.16;5054654;28;20601;-89
2021/06/02 00:24:13;;;;;;;12.98;5.97;;;;;;;10.76;nan;102010.94;5054269;28;20027;-88
2021/06/02 00:26:41;;;;;;;10.15;6.28;;;;;;;10.82;nan;102002.03;5046175;28;20024;-88
2021/06/02 00:29:08;;;;;;;13.73;6.15;;;;;;;10.85;nan;102009.63;5054362;28;20028;-88
2021/06/02 00:31:38;;;;;;;9.90;6.05;;;;;;;10.81;nan;102011.94;5045545;28;20090;-88
2021/06/02 00:34:04;;;;;;;13.45;6.60;;;;;;;10.87;nan;102004.88;5044323;28;20020;-88
2021/06/02 00:36:31;;;;;;;9.30;6.05;;;;;;;10.80;nan;102010.28;5065265;28;20036;-88
2021/06/02 00:39:03;;;;;;;13.90;6.57;;;;;;;10.86;nan;102019.31;5054422;28;20039;-89
2021/06/02 00:41:29;;;;;;;14.52;7.00;;;;;;;10.85;nan;102012.31;5071980;28;20474;-89
2021/06/02 00:43:56;;;;;;;12.00;6.43;;;;;;;10.88;nan;102018.06;5049378;28;20040;-88
2021/06/02 00:46:22;;;;;;;12.20;6.95;;;;;;;10.85;nan;102015.81;5041378;28;20471;-88
2021/06/02 00:48:48;;;;;;;12.45;5.97;;;;;;;10.86;nan;102013.94;5054102;28;20032;-88
2021/06/02 00:51:14;;;;;;;13.25;6.90;;;;;;;10.83;nan;102020.56;5054201;28;20501;-87
2021/06/02 00:53:39;;;;;;;13.43;6.30;;;;;;;10.80;nan;102015.66;5054055;28;20032;-87
2021/06/02 00:56:07;;;;;;;11.68;6.07;;;;;;;10.71;nan;102016.13;5057759;28;20043;-88
2021/06/02 00:58:42;;;;;;;10.48;6.82;;;;;;;10.69;nan;102012.84;5068675;28;20033;-88
2021/06/02 01:01:08;;;;;;;12.77;5.93;;;;;;;10.64;nan;102016.19;5059056;28;20028;-88
2021/06/02 01:03:36;;;;;;;14.07;6.85;;;;;;;10.62;nan;102014.78;5073993;28;20039;-87
2021/06/02 01:06:02;;;;;;;17.38;7.53;;;;;;;10.61;nan;102016.63;5086174;28;20013;-88
2021/06/02 01:08:30;;;;;;;13.05;6.72;;;;;;;10.44;nan;102010.16;5054853;28;20067;-87
2021/06/02 01:10:56;;;;;;;12.55;6.75;;;;;;;10.36;nan;102013.91;5053673;28;20482;-88
2021/06/02 01:13:23;;;;;;;12.35;7.40;;;;;;;10.39;nan;102016.13;5054049;28;20028;-88
2021/06/02 01:15:51;;;;;;;11.57;7.28;;;;;;;10.28;nan;102016.84;5054104;28;20021;-87
2021/06/02 01:18:18;;;;;;;13.65;6.50;;;;;;;10.26;nan;102005.53;5062742;28;20032;-87
2021/06/02 01:20:44;;;;;;;15.48;7.70;;;;;;;10.16;nan;102007.81;5084606;28;20086;-84
2021/06/02 01:23:11;;;;;;;15.48;6.80;;;;;;;10.10;nan;102014.84;5043321;28;20127;-84
2021/06/02 01:25:37;;;;;;;10.07;6.93;;;;;;;10.06;nan;102012.81;5034721;28;20422;-84
2021/06/02 01:28:04;;;;;;;13.13;7.72;;;;;;;9.94;nan;102016.16;5038407;28;20024;-84
2021/06/02 01:30:31;;;;;;;12.52;7.35;;;;;;;9.81;nan;102018.88;5037491;28;20040;-84
2021/06/02 01:32:56;;;;;;;14.18;7.72;;;;;;;9.77;nan;102025.69;5037557;28;20032;-85
2021/06/02 01:35:53;;;;;;;11.90;7.78;;;;;;;9.64;nan;102021.19;5040823;28;20147;-85
2021/06/02 01:38:50;;;;;;;10.82;7.13;;;;;;;9.63;nan;102018.72;5043799;28;20043;-85
2021/06/02 01:41:40;;;;;;;12.90;7.05;;;;;;;9.56;nan;102018.75;5040121;28;20025;-85
2021/06/02 01:44:25;;;;;;;17.30;8.30;;;;;;;9.49;nan;102030.50;5044083;28;20036;-84
2021/06/02 01:47:14;;;;;;;;;;;;;;;9.31;nan;102033.81;5049797;28;20036;-86
2021/06/02 01:49:53;;;;;;;12.90;7.45;;;;;;;9.41;nan;102033.41;5031831;28;19927;-85
2021/06/02 01:52:46;;;;;;;14.75;7.97;;;;;;;9.32;nan;102032.78;5036726;28;20053;-85
2021/06/02 01:55:54;;;;;;;13.50;8.07;;;;;;;9.24;nan;102030.34;5040287;28;20032;-85
2021/06/02 01:58:34;;;;;;;14.93;8.25;;;;;;;9.20;nan;102027.28;5012686;28;20044;-85
2021/06/02 02:01:37;;;;;;;14.13;8.38;;;;;;;9.10;nan;102034.88;5043719;28;20021;-83
2021/06/02 02:04:09;;;;;;;18.83;8.75;;;;;;;9.12;nan;102037.34;5041787;28;20029;-83
2021/06/02 02:06:52;;;;;;;16.13;9.35;;;;;;;9.06;nan;102039.81;5041523;28;20060;-83
2021/06/02 02:09:30;;;;;;;15.65;9.43;;;;;;;9.07;nan;102043.31;5038640;28;20076;-83
2021/06/02 02:12:15;;;;;;;15.65;8.93;;;;;;;9.03;nan;102040.25;5038105;28;20098;-84
2021/06/02 02:15:06;;;;;;;15.18;9.60;;;;;;;8.92;nan;102040.03;5043458;28;20150;-83
2021/06/02 02:18:21;;;;;;;16.67;8.85;;;;;;;8.89;nan;102037.78;5042392;28;20033;-84
2021/06/02 02:21:05;;;;;;;17.90;10.00;;;;;;;8.87;nan;102040.66;4999131;28;20038;-83
2021/06/02 02:23:41;;;;;;;19.50;9.43;;;;;;;8.81;nan;102040.66;4986011;28;20037;-83
2021/06/02 02:26:35;;;;;;;18.77;9.55;;;;;;;8.74;nan;102057.47;5023582;28;20246;-83
2021/06/02 02:29:35;;;;;;;16.42;8.63;;;;;;;8.73;nan;102055.84;5041020;28;20646;-84
2021/06/02 02:32:31;;;;;;;17.02;9.02;;;;;;;8.82;nan;102058.34;5063011;28;20032;-83
2021/06/02 02:35:28;;;;;;;15.52;8.57;;;;;;;8.81;nan;102054.03;5045957;28;20032;-83
2021/06/02 02:38:19;;;;;;;17.33;9.45;;;;;;;8.80;nan;102055.88;5062133;28;20024;-83
2021/06/02 02:41:06;;;;;;;20.42;8.80;;;;;;;8.77;nan;102056.25;5066107;28;20047;-81
2021/06/02 02:43:58;;;;;;;17.30;9.40;;;;;;;8.70;nan;102066.94;5074719;28;20032;-81
2021/06/02 02:46:33;;;;;;;17.10;10.25;;;;;;;8.57;nan;102058.91;5031757;28;20096;-81
2021/06/02 02:49:11;;;;;;;;;;;;;;;8.37;nan;102063.38;5065950;28;20028;-82
2021/06/02 02:51:43;;;;;;;17.90;10.27;;;;;;;8.39;nan;102066.66;5062592;28;19928;-83
2021/06/02 02:54:27;;;;;;;15.45;8.45;;;;;;;8.43;nan;102071.38;5054809;28;20031;-83
2021/06/02 02:57:14;;;;;;;13.57;9.10;;;;;;;8.40;nan;102068.31;5045806;28;20029;-83
2021/06/02 03:00:07;;;;;;;19.48;9.93;;;;;;;8.33;nan;102068.25;5045246;28;21988;-83
2021/06/02 03:02:40;;;;;;;13.75;8.90;;;;;;;8.36;nan;102070.56;5038553;28;20041;-82
2021/06/02 03:05:11;;;;;;;13.95;8.73;;;;;;;8.26;nan;102071.91;5058804;28;20035;-83
2021/06/02 03:07:40;;;;;;;18.30;9.38;;;;;;;8.27;nan;102078.94;5038531;28;20116;-83
2021/06/02 03:10:13;;;;;;;16.02;9.55;;;;;;;8.24;nan;102084.66;5044362;28;20035;-82
2021/06/02 03:12:57;;;;;;;16.42;10.10;;;;;;;8.21;nan;102090.41;5060204;28;20027;-82
2021/06/02 03:15:45;;;;;;;16.73;9.05;;;;;;;8.25;nan;102094.31;5071926;28;20021;-82
2021/06/02 03:18:39;;;;;;;19.05;9.18;;;;;;;8.35;nan;102094.78;5067995;28;20024;-82
2021/06/02 03:21:13;;;;;;;15.57;9.23;;;;;;;8.38;nan;102089.06;5085252;28;20192;-81
2021/06/02 03:23:57;;;;;;;15.43;9.32;;;;;;;8.37;nan;102098.09;5068332;28;20465;-83
2021/06/02 03:26:28;;;;;;;15.98;9.82;;;;;;;8.32;nan;102093.31;5050590;28;20047;-85
2021/06/02 03:29:10;;;;;;;15.30;9.98;;;;;;;8.24;nan;102090.00;5044370;28;20029;-85
2021/06/02 03:31:54;;;;;;;15.07;9.65;;;;;;;8.30;nan;102092.69;5040339;28;20033;-86
2021/06/02 03:34:22;;;;;;;16.55;9.77;;;;;;;8.34;nan;102093.16;5037824;28;20083;-84
2021/06/02 03:37:25;;;;;;;15.20;9.30;;;;;;;8.31;nan;102098.88;5056088;28;20097;-86
2021/06/02 03:40:03;;;;;;;16.98;10.68;;;;;;;8.41;nan;102097.47;5055015;28;20031;-86
2021/06/02 03:42:52;;;;;;;21.20;10.73;;;;;;;8.56;nan;102085.81;5034023;28;20056;-88
2021/06/02 03:45:43;;;;;;;16.98;8.93;;;;;;;8.69;nan;102086.66;5043057;28;20471;-87
2021/06/02 03:48:14;;;;;;;13.43;9.38;;;;;;;8.86;nan;102084.44;5057268;28;20147;-87
2021/06/02 03:51:01;;;;;;;19.63;10.63;;;;;;;8.92;nan;102086.28;5045883;28;20035;-84
2021/06/02 03:54:04;;;;;;;18.52;10.88;;;;;;;9.04;nan;102091.84;5042771;28;20021;-83
2021/06/02 03:56:45;;;;;;;18.13;11.15;;;;;;;9.25;nan;102083.63;5045108;28;20040;-85
2021/06/02 03:59:29;;;;;;;18.00;9.73;;;;;;;9.34;nan;102089.59;5036873;28;20021;-85
2021/06/02 04:02:03;;;;;;;20.33;10.18;;;;;;;9.39;nan;102090.63;5050848;28;20035;-84
2021/06/02 04:04:53;;;;;;;20.73;11.35;;;;;;;9.37;nan;102090.00;5042394;28;20123;-84
2021/06/02 04:07:25;;;;;;;18.30;10.20;;;;;;;9.44;nan;102097.19;5046017;28;20025;-82
2021/06/02 04:09:59;;;;;;;19.27;11.30;;;;;;;9.62;nan;102092.00;5053582;28;20151;-82
2021/06/02 04:12:34;;;;;;;18.77;10.35;;;;;;;9.78;nan;102090.75;5035576;28;20498;-84
2021/06/02 04:15:05;;;;;;;19.35;11.55;;;;;;;9.92;nan;102098.53;5061938;28;20486;-86
2021/06/02 04:17:32;;;;;;;21.08;11.23;;;;;;;10.02;nan;102091.91;5052854;28;20025;-84
2021/06/02 04:20:03;;;;;;;15.30;9.65;;;;;;;10.19;nan;102090.41;5038528;28;20047;-85
2021/06/02 04:22:32;;;;;;;15.73;10.32;;;;;;;10.42;nan;102090.75;5053197;28;20116;-86
2021/06/02 04:25:01;;;;;;;21.92;11.77;;;;;;;10.58;nan;102103.63;5035440;28;20222;-86
2021/06/02 04:27:27;;;;;;;21.23;10.90;;;;;;;10.43;nan;102103.13;5047856;28;20063;-85
2021/06/02 04:30:03;;;;;;;18.08;11.52;;;;;;;10.36;nan;102102.31;5056167;28;20048;-85
2021/06/02 04:32:38;;;;;;;18.58;10.05;;;;;;;10.45;nan;102106.41;5032071;28;20036;-84
2021/06/02 04:35:08;;;;;;;16.83;11.07;;;;;;;10.49;nan;102093.38;5044047;28;20468;-86
2021/06/02 04:37:35;;;;;;;18.73;10.50;;;;;;;10.65;nan;102092.06;5038214;28;20033;-85
2021/06/02 04:40:05;;;;;;;18.25;10.70;;;;;;;10.75;nan;102092.38;5040447;28;20490;-86
2021/06/02 04:42:35;;;;;;;21.23;11.38;;;;;;;10.76;nan;102099.41;5039245;28;20123;-85
2021/06/02 04:45:02;;;;;;;19.27;11.80;;;;;;;10.62;nan;102103.22;5048032;28;20044;-86
2021/06/02 04:47:32;;;;;;;19.33;11.73;;;;;;;10.64;nan;102101.16;5040608;28;20024;-86
2021/06/02 04:50:13;;;;;;;19.58;11.57;;;;;;;10.50;nan;102101.22;5044623;28;20029;-89
2021/06/02 04:53:08;;;;;;;20.20;11.77;;;;;;;10.62;nan;102097.84;5038257;28;20020;-86
2021/06/02 04:55:48;;;;;;;19.48;12.00;;;;;;;10.53;nan;102103.44;5041892;28;20032;-87
2021/06/02 04:58:33;;;;;;;23.02;12.43;;;;;;;10.74;nan;102101.47;5041826;28;20060;-87
2021/06/02 05:01:07;;;;;;;21.33;11.88;;;;;;;10.73;nan;102110.56;5035479;28;20079;-87
2021/06/02 05:04:09;;;;;;;26.58;13.23;;;;;;;10.63;nan;102104.84;5040732;28;20055;-88
2021/06/02 05:06:53;;;;;;;23.38;12.02;;;;;;;10.84;nan;102097.28;5036917;28;20025;-84
2021/06/02 05:10:04;;;;;;;25.50;12.38;;;;;;;10.65;nan;102094.75;5035287;28;20093;-85
2021/06/02 05:12:36;;;;;;;30.30;14.02;;;;;;;10.91;nan;102091.88;5031542;28;20688;-85
2021/06/02 05:15:10;;;;;;;25.35;14.55;;;;;;;10.92;nan;102090.84;5032204;28;20036;-85
2021/06/02 05:17:39;;;;;;;31.20;15.07;;;;;;;10.94;nan;102104.00;5036518;28;20124;-85
2021/06/02 05:23:52;;;;;;;30.20;14.65;;;;;;;11.16;nan;102118.72;5058747;28;20037;-85
2021/06/02 05:26:42;;;;;;;38.70;17.85;;;;;;;11.16;nan;102129.47;5048020;28;20348;-85
2021/06/02 05:29:26;;;;;;;44.22;18.02;;;;;;;11.08;nan;102125.16;5042987;28;20589;-85
2021/06/02 05:32:01;;;;;;;38.33;17.80;;;;;;;11.33;nan;102125.19;5038507;28;20033;-85
2021/06/02 05:34:55;;;;;;;44.22;17.60;;;;;;;11.56;nan;102121.06;5036348;28;20028;-85
2021/06/02 05:37:58;;;;;;;41.03;18.25;;;;;;;11.74;nan;102127.28;5045309;28;20024;-85
2021/06/02 05:40:48;;;;;;;40.25;17.02;;;;;;;11.78;nan;102135.72;5038458;28;20428;-85
2021/06/02 05:43:41;;;;;;;39.75;16.98;;;;;;;11.96;nan;102132.25;5034890;28;20060;-85
2021/06/02 05:46:43;;;;;;;42.50;18.23;;;;;;;12.19;nan;102139.63;5039304;28;20662;-85
2021/06/02 05:49:24;;;;;;;41.17;16.77;;;;;;;12.30;nan;102144.25;5038507;28;20029;-86
2021/06/02 05:52:29;;;;;;;45.63;18.45;;;;;;;12.34;nan;102148.94;5040606;28;20025;-85
2021/06/02 05:55:11;;;;;;;45.80;17.55;;;;;;;12.46;nan;102149.03;5053895;28;20115;-85
2021/06/02 05:58:14;;;;;;;40.35;17.45;;;;;;;12.50;nan;102152.06;5037609;28;20029;-85
2021/06/02 06:00:42;;;;;;;40.10;17.50;;;;;;;12.58;nan;102157.16;5041401;28;20043;-85
2021/06/02 06:03:34;;;;;;;38.40;17.42;;;;;;;12.68;nan;102157.41;5039674;28;20082;-85
2021/06/02 06:06:22;;;;;;;42.08;17.45;;;;;;;12.99;nan;102159.06;5041967;28;20027;-85
2021/06/02 06:09:27;;;;;;;44.95;17.08;;;;;;;13.09;nan;102163.84;5042250;28;20060;-85
2021/06/02 06:12:11;;;;;;;36.90;16.17;;;;;;;13.43;nan;102160.44;5038969;28;20077;-85
2021/06/02 06:15:08;;;;;;;42.58;17.33;;;;;;;13.66;nan;102166.94;5034532;28;20092;-85
2021/06/02 06:18:02;;;;;;;36.53;16.50;;;;;;;13.95;nan;102157.06;5045383;28;20040;-85
2021/06/02 06:20:47;;;;;;;34.33;15.95;;;;;;;14.01;nan;102145.34;5035508;28;20516;-86
2021/06/02 06:23:18;;;;;;;36.97;14.90;;;;;;;14.15;nan;102152.09;5036975;28;20085;-85
2021/06/02 06:25:50;;;;;;;32.55;15.80;;;;;;;14.17;nan;102153.50;5033980;28;20049;-86
2021/06/02 06:28:34;;;;;;;37.70;15.55;;;;;;;14.39;nan;102155.56;5056118;28;20479;-85
2021/06/02 06:31:02;;;;;;;37.17;14.93;;;;;;;14.50;nan;102157.44;5035305;28;20033;-85
2021/06/02 06:33:28;;;;;;;32.42;13.75;;;;;;;14.59;nan;102153.31;5040749;28;20040;-86
2021/06/02 06:35:55;;;;;;;30.90;13.35;;;;;;;14.92;nan;102151.75;5036526;28;20147;-85
2021/06/02 06:38:27;;;;;;;28.20;13.32;;;;;;;15.05;nan;102151.44;5035855;28;20426;-85
2021/06/02 06:40:53;;;;;;;28.80;12.90;;;;;;;15.19;nan;102146.53;5037095;28;20021;-85
2021/06/02 06:43:21;;;;;;;25.80;12.88;;;;;;;15.39;nan;102150.38;5052167;28;20032;-85
2021/06/02 06:45:48;;;;;;;26.15;12.63;;;;;;;15.60;nan;102150.72;5041249;28;20036;-85
2021/06/02 06:48:18;;;;;;;22.33;11.60;;;;;;;15.88;nan;102149.78;5052181;28;20032;-86
2021/06/02 06:50:56;;;;;;;28.08;13.55;;;;;;;15.73;nan;102153.09;5044419;28;20025;-85
2021/06/02 06:53:24;;;;;;;22.73;13.07;;;;;;;15.66;nan;102147.88;5040975;28;20549;-85
2021/06/02 06:55:52;;;;;;;21.65;11.88;;;;;;;15.81;nan;102149.97;5034946;28;20033;-85
2021/06/02 06:58:18;;;;;;;19.73;11.73;;;;;;;15.86;nan;102146.53;5032181;28;20025;-84
2021/06/02 07:00:45;;;;;;;25.13;11.85;;;;;;;15.86;nan;102155.44;5035998;28;20028;-85
2021/06/02 07:03:13;;;;;;;19.45;10.75;;;;;;;16.13;nan;102150.13;5051445;28;20029;-85
2021/06/02 07:05:40;;;;;;;21.58;10.82;;;;;;;16.35;nan;102154.72;5052595;28;20029;-85
2021/06/02 07:08:07;;;;;;;23.50;11.45;;;;;;;16.75;nan;102154.38;5043554;28;20107;-86
2021/06/02 07:10:33;;;;;;;19.98;11.82;;;;;;;16.88;nan;102156.69;5043452;28;20062;-86
2021/06/02 07:12:59;;;;;;;22.20;11.07;;;;;;;16.92;nan;102157.81;5052774;28;20269;-86
2021/06/02 07:15:26;;;;;;;21.55;11.45;;;;;;;17.08;nan;102159.59;5051420;28;20039;-85
2021/06/02 07:17:53;;;;;;;16.67;10.35;;;;;;;17.10;nan;102153.91;5040962;28;20090;-90
2021/06/02 07:20:25;;;;;;;18.08;10.27;;;;;;;17.15;nan;102149.34;5038139;28;20772;-90
2021/06/02 07:22:52;;;;;;;18.38;10.43;;;;;;;17.15;nan;102152.06;5042453;28;20475;-91
2021/06/02 07:25:23;;;;;;;18.05;10.77;;;;;;;17.37;nan;102151.97;5056138;28;20413;-91
2021/06/02 07:27:51;;;;;;;16.10;9.73;;;;;;;17.71;nan;102149.78;5054863;28;20025;-88
2021/06/02 07:30:18;;;;;;;18.13;10.07;;;;;;;17.53;nan;102152.88;5037286;28;20043;-86
2021/06/02 07:32:47;;;;;;;16.40;10.35;;;;;;;17.33;nan;102147.31;5048705;28;20037;-89
2021/06/02 07:35:15;;;;;;;14.57;9.65;;;;;;;17.66;nan;102144.31;5041700;28;20020;-89
2021/06/02 07:37:43;;;;;;;16.05;9.73;;;;;;;17.85;nan;102141.19;5041192;28;20017;-90
2021/06/02 07:40:09;;;;;;;15.48;10.05;;;;;;;18.13;nan;102138.06;5035056;28;20067;-88
2021/06/02 07:42:39;;;;;;;16.83;9.05;;;;;;;18.33;nan;102140.88;5035215;28;20478;-86
2021/06/02 07:45:08;;;;;;;16.77;10.27;;;;;;;18.35;nan;102144.16;5045690;28;20029;-88
2021/06/02 07:47:41;;;;;;;15.27;10.15;;;;;;;18.29;nan;102141.66;5046601;28;20021;-88
2021/06/02 07:50:08;;;;;;;15.88;9.90;;;;;;;18.38;nan;102140.09;5028957;28;20136;-91
2021/06/02 07:52:34;;;;;;;15.50;9.50;;;;;;;18.36;nan;102140.34;5046281;28;20079;-89
2021/06/02 07:54:59;;;;;;;16.05;9.68;;;;;;;18.68;nan;102144.81;5032252;28;20429;-87
2021/06/02 07:57:25;;;;;;;14.07;8.57;;;;;;;18.92;nan;102148.66;5048470;28;20173;-86
2021/06/02 07:59:51;;;;;;;16.83;9.88;;;;;;;18.83;nan;102144.81;5029103;28;20402;-85
2021/06/02 08:02:19;;;;;;;15.77;9.18;;;;;;;18.85;nan;102145.38;5028955;28;20025;-88
2021/06/02 08:04:45;;;;;;;16.63;9.77;;;;;;;19.20;nan;102143.75;5032546;28;20187;-89
2021/06/02 08:07:10;;;;;;;14.05;8.65;;;;;;;19.38;nan;102148.63;5032716;28;20028;-89
2021/06/02 08:09:48;;;;;;;14.32;9.05;;;;;;;19.38;nan;102150.53;5036098;28;20041;-89
2021/06/02 08:12:18;;;;;;;12.80;8.85;;;;;;;19.63;nan;102156.00;5030861;28;20033;-89
2021/06/02 08:14:44;;;;;;;18.98;9.10;;;;;;;19.36;nan;102156.25;5030785;28;20025;-87
2021/06/02 08:17:10;;;;;;;16.42;9.55;;;;;;;19.65;nan;102153.00;5048631;28;20036;-86
2021/06/02 08:19:35;;;;;;;13.65;9.25;;;;;;;20.04;nan;102151.25;5030984;28;20052;-86
2021/06/02 08:22:01;;;;;;;14.40;8.90;;;;;;;19.95;nan;102154.84;5027912;28;20138;-87
2021/06/02 08:24:30;;;;;;;15.10;9.45;;;;;;;20.33;nan;102147.88;5032399;28;20508;-87
2021/06/02 08:26:56;;;;;;;13.68;7.95;;;;;;;20.36;nan;102155.47;5030221;28;20044;-88
2021/06/02 08:29:24;;;;;;;13.07;9.05;;;;;;;20.15;nan;102157.50;5039012;28;20127;-91
2021/06/02 08:31:52;;;;;;;13.75;8.30;;;;;;;20.48;nan;102150.56;5035401;28;20029;-89
2021/06/02 08:34:36;;;;;;;11.75;8.80;;;;;;;20.57;nan;102145.31;5028238;28;20173;-88
2021/06/02 08:37:06;;;;;;;11.55;7.28;;;;;;;20.65;nan;102148.28;5033063;28;20021;-87
2021/06/02 08:39:43;;;;;;;;;;;;;;;;;;;;;
2021/06/02 08:42:09;;;;;;;10.95;7.82;;;;;;;20.89;nan;102139.41;5049648;28;20066;-91
2021/06/02 08:44:39;;;;;;;12.25;7.75;;;;;;;20.89;nan;102142.94;5038471;28;20032;-91
2021/06/02 08:47:07;;;;;;;10.98;7.78;;;;;;;21.24;nan;102141.88;5044624;28;20024;-91
2021/06/02 08:49:33;;;;;;;12.13;7.57;;;;;;;21.15;nan;102149.00;5045150;28;20033;-91
2021/06/02 08:54:49;;;;;;;11.88;8.48;;;;;;;21.41;nan;102136.00;5056286;28;21031;-92
2021/06/02 08:57:19;;;;;;;9.65;6.78;;;;;;;21.53;nan;102138.31;5039937;28;20033;-91
2021/06/02 08:59:45;;;;;;;11.30;7.15;;;;;;;21.84;nan;102142.34;5047645;28;20032;-92
2021/06/02 09:02:11;;;;;;;7.85;5.95;;;;;;;21.98;nan;102126.91;5039269;28;20024;-86
2021/06/02 09:04:38;;;;;;;12.60;5.97;;;;;;;22.16;nan;102133.56;5040199;28;20028;-89
2021/06/02 09:07:06;;;;;;;11.13;7.10;;;;;;;22.23;nan;102138.66;5042165;28;20024;-89
2021/06/02 09:09:32;;;;;;;10.52;6.55;;;;;;;22.42;nan;102125.81;5048675;28;20056;-90
2021/06/02 09:12:05;;;;;;;8.95;6.78;;;;;;;22.54;nan;102130.84;5038930;28;20037;-88
2021/06/02 09:14:36;;;;;;;11.20;7.68;;;;;;;22.41;nan;102126.94;5040442;28;20033;-89
2021/06/02 09:17:20;;;;;;;;;;;;;;;;;;;;;
2021/06/02 09:19:54;;;;;;;11.00;7.40;;;;;;;22.74;nan;102124.28;5061869;28;20037;-91
2021/06/02 09:22:28;;;;;;;10.38;7.05;;;;;;;22.97;nan;102128.84;5035783;28;20529;-90
2021/06/02 09:24:57;;;;;;;8.33;6.13;;;;;;;22.90;nan;102131.16;5038406;28;20025;-92
2021/06/02 09:27:56;;;;;;;7.80;5.43;;;;;;;23.32;nan;102127.44;5039971;28;20490;-88
2021/06/02 09:30:39;;;;;;;8.80;5.82;;;;;;;23.62;nan;102128.03;5033476;28;20398;-87
2021/06/02 09:33:08;;;;;;;8.77;5.70;;;;;;;23.80;nan;102127.94;5039847;28;20120;-87
2021/06/02 09:35:35;;;;;;;9.88;6.00;;;;;;;24.14;nan;102121.22;5035515;28;20474;-84
2021/06/02 09:38:01;;;;;;;8.52;5.18;;;;;;;24.09;nan;102127.63;5050121;28;20123;-85
2021/06/02 09:40:31;;;;;;;8.68;6.22;;;;;;;24.04;nan;102126.91;5038658;28;20466;-85
2021/06/02 09:42:57;;;;;;;7.32;5.97;;;;;;;24.15;nan;102130.25;5035772;28;20029;-83
2021/06/02 09:45:24;;;;;;;7.38;5.85;;;;;;;24.03;nan;102122.53;5033587;28;20032;-85
2021/06/02 09:48:01;;;;;;;6.07;5.28;;;;;;;24.31;nan;102118.69;5033051;28;20056;-87
2021/06/02 09:50:33;;;;;;;10.73;5.72;;;;;;;24.30;nan;102122.53;5032812;28;20059;-87
2021/06/02 09:53:01;;;;;;;8.02;5.40;;;;;;;24.38;nan;102127.28;5037604;28;20062;-87
2021/06/02 09:55:36;;;;;;;7.43;5.63;;;;;;;24.43;nan;102126.38;5039601;28;20050;-87
2021/06/02 09:58:01;;;;;;;8.68;5.45;;;;;;;24.57;nan;102129.06;5036432;28;20021;-87
2021/06/02 10:00:28;;;;;;;8.32;5.25;;;;;;;24.75;nan;102127.28;5052804;28;20096;-88
2021/06/02 10:03:02;;;;;;;7.80;5.72;;;;;;;24.67;nan;102126.09;5036754;28;20047;-87
2021/06/02 10:05:43;;;;;;;9.00;5.85;;;;;;;24.71;nan;102127.09;5041117;28;20051;-88
2021/06/02 10:08:11;;;;;;;7.35;5.75;;;;;;;24.94;nan;102119.66;5033106;28;20049;-86
2021/06/02 10:10:40;;;;;;;8.40;5.28;;;;;;;25.17;nan;102118.59;5039793;28;20079;-86
2021/06/02 10:13:07;;;;;;;5.82;4.75;;;;;;;25.22;nan;102123.13;5031384;28;20037;-84
2021/06/02 10:15:34;;;;;;;4.85;4.18;;;;;;;25.12;nan;102120.63;5037935;28;20228;-84
2021/06/02 10:18:00;;;;;;;5.93;4.10;;;;;;;24.60;nan;102114.75;5047656;28;20028;-84
2021/06/02 10:20:27;;;;;;;6.00;4.10;;;;;;;24.34;nan;102120.81;5045426;28;20058;-87
2021/06/02 10:22:55;;;;;;;5.75;4.93;;;;;;;24.63;nan;102123.16;5055052;28;20040;-87
2021/06/02 10:25:23;;;;;;;6.85;5.20;;;;;;;25.07;nan;102129.00;5051113;28;20503;-88
2021/06/02 10:27:53;;;;;;;6.00;4.78;;;;;;;25.19;nan;102115.53;5038659;28;20106;-88
2021/06/02 10:30:21;;;;;;;6.32;4.78;;;;;;;25.25;nan;102114.25;5034466;28;20267;-88
2021/06/02 10:32:47;;;;;;;9.18;5.05;;;;;;;25.48;nan;102123.25;5035252;28;20020;-87
2021/06/02 10:35:13;;;;;;;7.55;4.50;;;;;;;25.08;nan;102119.63;5036843;28;20403;-89
2021/06/02 10:37:41;;;;;;;6.65;4.20;;;;;;;25.03;nan;102123.31;5041435;28;20039;-87
2021/06/02 10:40:34;;;;;;;6.43;4.55;;;;;;;25.25;nan;102125.22;5025729;28;20032;-87
2021/06/02 10:43:16;;;;;;;6.35;4.80;;;;;;;24.69;nan;102115.63;5033455;28;20108;-89
2021/06/02 10:46:08;;;;;;;5.45;4.40;;;;;;;24.91;nan;102112.88;5037521;28;20070;-88
2021/06/02 10:48:52;;;;;;;5.68;4.78;;;;;;;25.42;nan;102124.50;5042499;28;20024;-89
2021/06/02 10:51:39;;;;;;;7.33;5.17;;;;;;;25.61;nan;102119.59;5048859;28;20253;-88
2021/06/02 10:54:37;;;;;;;6.18;4.35;;;;;;;25.32;nan;102125.63;5034710;28;20367;-89
2021/06/02 10:57:22;;;;;;;6.65;5.05;;;;;;;25.05;nan;102128.50;5036613;28;20036;-88
2021/06/02 10:59:48;;;;;;;6.47;4.78;;;;;;;25.14;nan;102119.22;5033615;28;20118;-87
2021/06/02 11:02:31;;;;;;;6.95;4.80;;;;;;;25.14;nan;102121.16;5030109;28;20471;-88
2021/06/02 11:04:56;;;;;;;5.53;4.93;;;;;;;25.04;nan;102116.72;5034279;28;20027;-88
2021/06/02 11:07:32;;;;;;;7.82;5.05;;;;;;;25.15;nan;102118.09;5030182;28;20201;-88
2021/06/02 11:10:05;;;;;;;7.00;5.28;;;;;;;25.12;nan;102120.63;5042636;28;20038;-88
2021/06/02 11:12:49;;;;;;;6.15;4.80;;;;;;;24.85;nan;102122.38;5037711;28;20029;-86
2021/06/02 11:15:46;;;;;;;8.00;5.50;;;;;;;25.60;nan;102126.22;5038744;28;20031;-87
2021/06/02 11:18:12;;;;;;;7.85;5.70;;;;;;;25.81;nan;102118.25;5035375;28;20021;-86
2021/06/02 11:20:57;;;;;;;9.45;5.80;;;;;;;26.13;nan;102126.09;5041500;28;20578;-87
2021/06/02 11:23:31;;;;;;;7.35;5.35;;;;;;;25.90;nan;102127.34;5043533;28;20107;-87
2021/06/02 11:26:26;;;;;;;7.60;5.72;;;;;;;25.85;nan;102132.94;5052706;28;20052;-87
2021/06/02 11:32:45;;;;;;;7.60;5.05;;;;;;;25.76;nan;102132.13;5053594;28;20048;-89
2021/06/02 11:35:15;;;;;;;5.82;4.75;;;;;;;25.73;nan;102133.56;5030186;28;20028;-88
2021/06/02 11:37:41;;;;;;;8.75;5.03;;;;;;;25.88;nan;102132.34;5041017;28;20036;-88
2021/06/02 11:40:14;;;;;;;6.22;4.88;;;;;;;25.89;nan;102129.28;5033640;28;20474;-88
2021/06/02 11:42:47;;;;;;;5.57;4.85;;;;;;;25.97;nan;102130.41;5036942;28;20587;-88
2021/06/02 11:45:16;;;;;;;7.47;5.18;;;;;;;25.89;nan;102128.47;5042677;28;20093;-88
2021/06/02 11:47:50;;;;;;;7.32;5.25;;;;;;;25.91;nan;102134.44;5040178;28;20048;-89
2021/06/02 11:50:26;;;;;;;7.07;5.30;;;;;;;25.96;nan;102147.22;5040478;28;20039;-90
2021/06/02 11:53:00;;;;;;;7.32;6.00;;;;;;;25.76;nan;102143.91;5046584;28;20028;-88
2021/06/02 11:55:29;;;;;;;5.70;4.53;;;;;;;25.66;nan;102149.63;5033259;28;20497;-88
2021/06/02 11:57:55;;;;;;;7.10;5.18;;;;;;;25.86;nan;102140.09;5037703;28;20029;-88
2021/06/02 12:00:28;;;;;;;5.78;5.18;;;;;;;26.56;nan;102141.84;5037003;28;20686;-89
2021/06/02 12:03:00;;;;;;;13.60;5.70;;;;;;;27.31;nan;102139.72;5051987;28;20286;-90
2021/06/02 12:05:37;;;;;;;9.75;5.15;;;;;;;27.71;nan;102134.72;5037010;28;20195;-88
2021/06/02 12:08:10;;;;;;;10.55;4.72;;;;;;;27.55;nan;102139.13;5041433;28;20056;-87
2021/06/02 12:10:41;;;;;;;6.27;4.27;;;;;;;28.30;nan;102140.25;5034425;28;20035;-88
2021/06/02 12:13:28;;;;;;;6.93;4.70;;;;;;;28.37;nan;102140.53;5047558;28;20021;-89
2021/06/02 12:15:57;;;;;;;5.38;4.32;;;;;;;27.83;nan;102129.34;5049791;28;20029;-86
2021/06/02 12:18:36;;;;;;;8.10;4.75;;;;;;;28.23;nan;102131.69;5035877;28;20028;-86
2021/06/02 12:21:12;;;;;;;5.15;4.38;;;;;;;28.48;nan;102124.38;5053869;28;20082;-87
2021/06/02 12:23:49;;;;;;;6.47;4.47;;;;;;;28.55;nan;102122.72;5038461;28;20028;-87
2021/06/02 12:26:30;;;;;;;5.05;3.80;;;;;;;28.70;nan;102112.19;5041705;28;20449;-86
2021/06/02 12:29:00;;;;;;;4.97;3.80;;;;;;;28.75;nan;102126.59;5037638;28;20028;-86